Time;durP1;ratioP1;P1;durP2;ratioP2;P2;SDS_P1;SDS_P2;PMS_P1;PMS_P2;Temp;Humidity;BMP_temperature;BMP_pressure;BME280_temperature;BME280_humidity;BME280_pressure;Samples;Min_cycle;Max_cycle;Signal;HPM_P1;HPM_P2
2022/01/15 00:00:19;;;;;;;1.50;1.10;;;;;;;2.30;60.54;98275.94;1703252;81;21059;-76
2022/01/15 00:02:48;;;;;;;3.50;1.00;;;;;;;2.31;60.39;98300.08;1723961;82;21091;-78
2022/01/15 00:05:14;;;;;;;4.10;1.57;;;;;;;2.32;60.27;98301.70;1744242;81;21007;-78
2022/01/15 00:07:42;;;;;;;1.27;0.88;;;;;;;2.32;60.85;98319.75;1712856;82;21077;-79
2022/01/15 00:10:08;;;;;;;1.92;1.20;;;;;;;2.32;60.77;98290.57;1713943;82;21035;-78
2022/01/15 00:12:40;;;;;;;1.52;1.35;;;;;;;2.30;60.44;98315.21;1683079;85;21079;-79
2022/01/15 00:15:07;;;;;;;4.95;1.27;;;;;;;2.30;60.03;98291.86;1669230;84;21547;-78
2022/01/15 00:17:48;;;;;;;1.98;1.05;;;;;;;2.31;59.58;98294.77;1679774;81;20948;-74
2022/01/15 00:20:16;;;;;;;2.17;1.27;;;;;;;2.31;59.76;98315.48;1753748;81;21032;-76
2022/01/15 00:22:44;;;;;;;3.05;1.40;;;;;;;2.31;59.65;98300.08;1751804;81;21043;-76
2022/01/15 00:25:11;;;;;;;4.47;1.30;;;;;;;2.31;59.26;98331.39;1739364;81;20970;-74
2022/01/15 00:27:38;;;;;;;1.57;1.00;;;;;;;2.33;59.23;98312.61;1688060;83;21817;-77
2022/01/15 00:30:07;;;;;;;2.12;1.17;;;;;;;2.34;59.03;98353.50;1689440;85;21082;-75
2022/01/15 00:32:33;;;;;;;1.87;1.30;;;;;;;2.35;59.14;98308.67;1663977;85;21503;-76
2022/01/15 00:35:00;;;;;;;2.02;1.70;;;;;;;2.36;59.02;98353.25;1729491;81;21092;-76
2022/01/15 00:37:32;;;;;;;1.20;1.10;;;;;;;2.38;58.70;98372.41;1744408;81;21074;-80
2022/01/15 00:39:59;;;;;;;1.95;1.30;;;;;;;2.38;58.76;98365.27;1748869;81;21828;-81
2022/01/15 00:42:27;;;;;;;3.42;1.45;;;;;;;2.37;58.69;98370.27;1698446;83;21027;-83
2022/01/15 00:44:58;;;;;;;5.87;3.90;;;;;;;2.36;58.89;98353.25;1713046;81;20931;-79
2022/01/15 00:47:31;;;;;;;1.20;1.10;;;;;;;2.36;59.37;98361.20;1724733;83;21535;-80
2022/01/15 00:50:01;;;;;;;2.42;1.32;;;;;;;2.32;59.88;98380.77;1699388;83;21369;-83
2022/01/15 00:52:34;;;;;;;3.85;1.45;;;;;;;2.30;60.02;98368.27;1706340;83;21003;-89
2022/01/15 00:55:03;;;;;;;1.72;1.12;;;;;;;2.29;59.72;98348.59;1726808;81;21079;-82
2022/01/15 00:57:38;;;;;;;1.12;1.02;;;;;;;2.31;59.86;98363.73;1699690;83;20999;-84
2022/01/15 01:00:08;;;;;;;3.50;1.20;;;;;;;2.30;59.23;98383.36;1709317;81;21023;-76
2022/01/15 01:02:35;;;;;;;3.30;2.10;;;;;;;2.27;62.15;98358.09;1695554;83;21129;-76
2022/01/15 01:05:01;;;;;;;2.55;1.47;;;;;;;2.18;63.36;98388.64;1698906;81;21555;-79
2022/01/15 01:07:28;;;;;;;2.90;1.60;;;;;;;2.08;64.59;98367.17;1705915;82;21018;-76
2022/01/15 01:10:18;;;;;;;3.67;0.85;;;;;;;1.98;65.56;98372.22;1718763;82;21560;-79
2022/01/15 01:23:00;;;;;;;1.20;1.10;;;;;;;1.79;66.85;98371.98;1694788;83;21092;-78
2022/01/15 01:25:29;;;;;;;2.10;1.62;;;;;;;1.77;66.27;98390.78;1717177;83;21089;-75
2022/01/15 01:28:02;;;;;;;2.92;1.17;;;;;;;1.79;65.85;98386.05;1711187;82;21126;-76
2022/01/15 01:30:29;;;;;;;5.42;1.30;;;;;;;1.81;65.85;98408.36;1725797;82;21112;-75
2022/01/15 01:32:57;;;;;;;2.17;1.10;;;;;;;1.83;65.42;98403.11;1713829;82;20901;-76
2022/01/15 01:35:34;;;;;;;4.10;1.60;;;;;;;1.85;66.16;98426.75;1698741;84;21386;-76
2022/01/15 01:38:06;;;;;;;2.65;1.37;;;;;;;1.67;72.96;98449.62;1728362;81;21082;-74
2022/01/15 01:40:37;;;;;;;1.07;0.93;;;;;;;1.51;74.45;98425.05;1689396;83;21051;-85
2022/01/15 01:43:25;;;;;;;2.85;1.25;;;;;;;1.32;77.06;98447.28;1718594;82;21607;-86
2022/01/15 01:45:23;;;;;;;1.72;1.27;;;;;;;1.24;78.33;98448.39;1715300;82;20995;-72
2022/01/15 01:47:52;;;;;;;1.85;1.20;;;;;;;1.15;79.87;98435.66;1718825;83;20962;-75
2022/01/15 01:50:22;;;;;;;8.80;1.27;;;;;;;1.01;81.72;98443.45;1690197;83;21039;-77
2022/01/15 01:52:53;;;;;;;5.78;2.27;;;;;;;0.94;82.37;98436.08;1732412;82;21036;-76
2022/01/15 01:55:22;;;;;;;1.40;1.10;;;;;;;0.86;83.43;98472.91;1724361;82;21113;-78
2022/01/15 01:57:52;;;;;;;2.60;1.10;;;;;;;0.75;84.20;98442.66;1719196;83;21039;-77
2022/01/15 02:00:20;;;;;;;1.53;1.30;;;;;;;0.69;84.46;98448.00;1721519;82;20979;-78
2022/01/15 02:02:48;;;;;;;2.30;1.17;;;;;;;0.69;84.47;98454.11;1691155;83;21043;-85
2022/01/15 02:05:15;;;;;;;2.63;1.33;;;;;;;0.69;84.28;98451.97;1720445;82;20991;-76
2022/01/15 02:07:43;;;;;;;1.60;0.90;;;;;;;0.69;83.90;98459.91;1694988;82;21245;-75
2022/01/15 02:10:13;;;;;;;5.80;1.27;;;;;;;0.72;83.45;98457.63;1745550;81;20928;-80
2022/01/15 02:12:39;;;;;;;2.17;1.13;;;;;;;0.75;82.85;98451.92;1680691;82;21047;-75
2022/01/15 02:15:14;;;;;;;5.80;1.40;;;;;;;0.78;82.52;98451.48;1742140;82;21057;-80
2022/01/15 02:17:43;;;;;;;1.17;1.00;;;;;;;0.81;82.19;98456.87;1728424;81;21024;-82
2022/01/15 02:25:47;;;;;;;0.93;0.83;;;;;;;0.89;80.75;98464.52;1702117;83;21554;-76
2022/01/15 02:28:15;;;;;;;3.10;1.00;;;;;;;0.90;79.52;98465.33;1728958;81;21625;-76
2022/01/15 02:30:42;;;;;;;1.90;1.17;;;;;;;0.94;79.02;98473.94;1702230;83;21078;-79
2022/01/15 02:33:08;;;;;;;8.30;1.43;;;;;;;0.99;78.07;98468.80;1737134;82;21770;-83
2022/01/15 02:35:35;;;;;;;3.40;1.47;;;;;;;1.03;76.07;98469.98;1712883;83;21069;-78
2022/01/15 02:38:05;;;;;;;0.90;0.90;;;;;;;1.12;73.18;98493.00;1743529;81;21031;-76
2022/01/15 02:40:37;;;;;;;0.90;0.90;;;;;;;1.23;72.80;98493.11;1743803;81;21549;-77
2022/01/15 02:43:06;;;;;;;1.22;1.10;;;;;;;1.31;70.79;98502.59;1711117;82;21054;-76
2022/01/15 02:45:34;;;;;;;1.27;1.07;;;;;;;1.40;69.01;98492.00;1731296;81;21555;-74
2022/01/15 02:48:05;;;;;;;4.67;1.43;;;;;;;1.50;68.42;98491.48;1727773;81;20963;-74
2022/01/15 02:50:33;;;;;;;4.13;1.10;;;;;;;1.56;68.19;98492.75;1702498;83;21039;-73
2022/01/15 02:53:03;;;;;;;1.93;1.10;;;;;;;1.61;67.86;98477.52;1703203;82;21070;-72
2022/01/15 02:55:29;;;;;;;5.90;1.63;;;;;;;1.64;67.84;98516.30;1702064;83;21049;-70
2022/01/15 02:57:56;;;;;;;4.00;1.40;;;;;;;1.64;68.09;98503.04;1718687;81;21147;-73
2022/01/15 03:00:26;;;;;;;6.10;2.17;;;;;;;1.64;68.73;98563.17;1728385;81;21049;-74
2022/01/15 03:02:52;;;;;;;3.20;1.90;;;;;;;1.63;69.34;98556.28;1726248;83;21104;-73
2022/01/15 03:05:20;;;;;;;3.70;1.37;;;;;;;1.60;69.66;98519.09;1727149;83;21093;-73
2022/01/15 03:07:47;;;;;;;1.80;1.57;;;;;;;1.58;70.36;98559.56;1727098;83;21076;-74
2022/01/15 03:10:13;;;;;;;3.13;1.20;;;;;;;1.55;70.83;98544.63;1692773;83;21063;-72
2022/01/15 03:12:41;;;;;;;3.13;1.63;;;;;;;1.54;71.21;98532.41;1698037;84;21002;-74
2022/01/15 03:15:08;;;;;;;1.60;1.10;;;;;;;1.51;71.50;98564.12;1700312;82;21034;-72
2022/01/15 03:17:35;;;;;;;1.83;1.73;;;;;;;1.48;71.75;98538.09;1690272;82;21555;-75
2022/01/15 03:20:04;;;;;;;1.90;1.70;;;;;;;1.47;72.15;98525.05;1667199;83;21066;-73
2022/01/15 03:22:31;;;;;;;6.37;1.40;;;;;;;1.47;72.32;98541.77;1690349;83;21499;-75
2022/01/15 03:24:57;;;;;;;2.83;1.40;;;;;;;1.46;72.55;98548.59;1718736;83;20987;-74
2022/01/15 03:27:24;;;;;;;1.63;1.30;;;;;;;1.46;72.79;98545.95;1690388;83;21011;-74
2022/01/15 03:29:51;;;;;;;4.05;1.20;;;;;;;1.44;73.12;98567.89;1690247;83;22282;-72
2022/01/15 03:32:19;;;;;;;1.70;1.27;;;;;;;1.41;73.25;98570.44;1720893;82;21004;-73
2022/01/15 03:34:46;;;;;;;3.00;1.40;;;;;;;1.41;73.30;98554.55;1719196;83;21221;-75
2022/01/15 03:37:13;;;;;;;2.97;1.20;;;;;;;1.42;73.41;98552.71;1718790;83;20971;-73
2022/01/15 03:39:39;;;;;;;3.37;1.23;;;;;;;1.42;73.43;98555.36;1719007;83;21039;-74
2022/01/15 03:42:11;;;;;;;2.37;1.50;;;;;;;1.41;73.29;98532.03;1689936;83;21007;-73
2022/01/15 03:44:36;;;;;;;2.97;1.37;;;;;;;1.40;73.15;98558.22;1718597;83;21014;-75
2022/01/15 03:47:03;;;;;;;3.40;1.20;;;;;;;1.42;73.21;98554.04;1690789;82;21097;-73
2022/01/15 03:49:30;;;;;;;1.82;1.05;;;;;;;1.42;72.95;98555.36;1685626;82;20981;-76
2022/01/15 03:51:59;;;;;;;1.83;1.17;;;;;;;1.44;73.01;98548.02;1702837;83;21063;-74
2022/01/15 03:54:25;;;;;;;1.63;1.40;;;;;;;1.46;72.77;98565.30;1690544;83;20977;-72
2022/01/15 03:56:52;;;;;;;0.80;0.80;;;;;;;1.46;72.55;98557.35;1718169;83;21023;-73
2022/01/15 03:59:19;;;;;;;4.23;1.57;;;;;;;1.45;72.49;98570.30;1714823;83;21098;-71
2022/01/15 04:01:45;;;;;;;1.57;1.10;;;;;;;1.47;72.48;98558.98;1679973;83;20962;-74
2022/01/15 04:04:12;;;;;;;6.23;1.93;;;;;;;1.47;72.23;98548.38;1720402;81;21003;-72
2022/01/15 04:06:39;;;;;;;2.45;1.95;;;;;;;1.48;72.16;98552.66;1718688;83;20991;-74
2022/01/15 04:09:05;;;;;;;5.72;1.30;;;;;;;1.49;71.81;98574.64;1718662;83;21063;-74
2022/01/15 04:11:32;;;;;;;3.47;1.32;;;;;;;1.50;71.56;98560.37;1718818;83;21214;-73
2022/01/15 04:13:58;;;;;;;1.55;1.45;;;;;;;1.52;71.43;98559.65;1720648;82;20995;-74
2022/01/15 04:16:24;;;;;;;3.62;1.55;;;;;;;1.52;71.25;98557.81;1695093;82;21599;-76
2022/01/15 04:18:50;;;;;;;1.40;1.17;;;;;;;1.52;70.96;98572.38;1713176;82;21054;-75
2022/01/15 04:21:18;;;;;;;4.22;1.60;;;;;;;1.55;71.09;98563.98;1744195;82;22201;-76
2022/01/15 04:23:44;;;;;;;1.77;1.07;;;;;;;1.57;70.92;98567.23;1717773;81;21118;-75
2022/01/15 04:26:10;;;;;;;3.33;1.30;;;;;;;1.60;71.00;98569.95;1726379;81;21061;-74
2022/01/15 04:28:38;;;;;;;1.52;1.42;;;;;;;1.59;70.85;98551.10;1698389;82;21324;-75
2022/01/15 04:31:06;;;;;;;7.40;1.35;;;;;;;1.61;71.03;98563.62;1743000;82;21031;-75
2022/01/15 04:33:37;;;;;;;1.22;1.00;;;;;;;1.62;70.89;98550.17;1744331;82;21026;-76
2022/01/15 04:36:05;;;;;;;3.60;0.95;;;;;;;1.64;70.78;98568.48;1724606;81;21149;-77
2022/01/15 04:38:34;;;;;;;1.90;1.47;;;;;;;1.65;70.31;98571.42;1690902;83;21099;-76
2022/01/15 04:41:00;;;;;;;1.10;0.83;;;;;;;1.67;70.09;98574.17;1716806;82;21042;-76
2022/01/15 04:43:26;;;;;;;1.67;1.15;;;;;;;1.67;69.93;98580.80;1666593;83;21577;-78
2022/01/15 04:45:52;;;;;;;1.62;1.10;;;;;;;1.72;69.93;98614.07;1705146;81;21086;-75
2022/01/15 04:48:21;;;;;;;1.55;1.15;;;;;;;1.73;69.61;98562.66;1730840;81;21541;-77
2022/01/15 04:50:47;;;;;;;3.40;1.52;;;;;;;1.75;69.48;98573.05;1729214;82;21010;-77
2022/01/15 04:53:14;;;;;;;1.65;1.20;;;;;;;1.76;69.32;98590.59;1744089;82;20958;-76
2022/01/15 04:55:40;;;;;;;0.98;0.93;;;;;;;1.79;68.96;98570.77;1717572;81;21038;-79
2022/01/15 04:58:07;;;;;;;2.12;1.30;;;;;;;1.78;68.69;98577.91;1754539;81;21023;-75
2022/01/15 05:00:34;;;;;;;5.10;1.20;;;;;;;1.80;68.74;98571.88;1754282;81;21228;-76
2022/01/15 05:03:00;;;;;;;4.25;1.10;;;;;;;1.80;68.48;98593.08;1754337;81;20955;-76
2022/01/15 05:05:27;;;;;;;3.27;1.45;;;;;;;1.81;68.54;98581.97;1736112;81;21003;-77
2022/01/15 05:07:54;;;;;;;1.32;0.93;;;;;;;1.80;68.16;98602.88;1699362;83;21068;-84
2022/01/15 05:10:28;;;;;;;1.52;1.17;;;;;;;1.83;68.31;98575.41;1697366;83;21113;-76
2022/01/15 05:13:02;;;;;;;1.67;1.00;;;;;;;1.82;68.13;98591.03;1706373;82;22023;-78
2022/01/15 05:15:23;;;;;;;1.95;1.10;;;;;;;1.82;68.02;98605.61;1717815;82;21031;-80
2022/01/15 05:17:51;;;;;;;1.62;1.52;;;;;;;1.84;67.98;98592.93;1746834;81;21104;-84
2022/01/15 05:20:18;;;;;;;3.35;1.22;;;;;;;1.83;67.88;98588.66;1755111;81;21481;-78
2022/01/15 05:22:46;;;;;;;3.90;1.80;;;;;;;1.82;67.57;98626.82;1755147;81;20991;-77
2022/01/15 05:25:17;;;;;;;2.05;1.35;;;;;;;1.81;67.43;98601.84;1730367;81;21067;-75
2022/01/15 05:27:44;;;;;;;3.12;2.02;;;;;;;1.82;67.51;98600.31;1728736;81;21714;-78
2022/01/15 05:30:11;;;;;;;3.65;2.90;;;;;;;1.83;67.59;98595.80;1727078;83;21019;-74
2022/01/15 05:32:40;;;;;;;4.53;1.20;;;;;;;1.80;67.58;98579.83;1727302;83;21021;-80
2022/01/15 05:35:08;;;;;;;1.37;1.02;;;;;;;1.81;67.59;98600.52;1727178;83;21648;-78
2022/01/15 05:37:35;;;;;;;1.47;1.25;;;;;;;1.79;67.61;98596.76;1702351;83;21279;-76
2022/01/15 05:40:02;;;;;;;2.67;1.55;;;;;;;1.80;67.68;98601.55;1708964;82;21070;-75
2022/01/15 05:42:30;;;;;;;2.02;1.10;;;;;;;1.78;67.72;98613.69;1721890;82;20951;-73
2022/01/15 05:44:56;;;;;;;3.60;1.52;;;;;;;1.80;67.88;98580.34;1744510;82;21025;-74
2022/01/15 05:47:23;;;;;;;4.00;1.60;;;;;;;1.80;67.92;98597.57;1705258;83;21112;-72
2022/01/15 05:49:49;;;;;;;1.27;1.15;;;;;;;1.80;67.89;98610.83;1703866;83;21113;-71
2022/01/15 05:52:15;;;;;;;3.65;1.95;;;;;;;1.81;67.91;98618.56;1702804;82;21000;-72
2022/01/15 05:54:42;;;;;;;3.72;1.35;;;;;;;1.84;67.88;98627.39;1728464;82;22236;-73
2022/01/15 05:57:08;;;;;;;3.15;1.55;;;;;;;1.84;67.79;98628.72;1740552;82;21023;-75
2022/01/15 05:59:35;;;;;;;3.98;1.25;;;;;;;1.86;67.57;98612.09;1741342;81;21066;-75
2022/01/15 06:02:03;;;;;;;3.37;1.50;;;;;;;1.87;67.38;98608.92;1728419;81;21763;-75
2022/01/15 06:04:30;;;;;;;2.20;1.25;;;;;;;1.88;67.24;98628.57;1754964;81;20991;-74
2022/01/15 06:06:57;;;;;;;2.37;1.17;;;;;;;1.90;67.19;98626.52;1754968;81;21469;-73
2022/01/15 06:09:25;;;;;;;3.80;1.10;;;;;;;1.92;66.71;98648.30;1752854;81;21027;-72
2022/01/15 06:11:51;;;;;;;2.08;1.27;;;;;;;1.96;66.45;98648.70;1698387;83;21055;-74
2022/01/15 06:14:17;;;;;;;1.42;1.07;;;;;;;2.00;66.28;98632.64;1711977;82;21061;-74
2022/01/15 06:16:45;;;;;;;4.47;1.72;;;;;;;2.03;66.25;98636.16;1726014;82;20952;-73
2022/01/15 06:19:11;;;;;;;1.55;1.45;;;;;;;2.05;66.10;98628.81;1692055;83;21022;-76
2022/01/15 06:21:37;;;;;;;3.27;1.10;;;;;;;2.09;65.79;98618.05;1721002;81;21050;-75
2022/01/15 06:24:04;;;;;;;4.67;1.67;;;;;;;2.10;65.39;98638.24;1690464;83;21058;-77
2022/01/15 06:26:31;;;;;;;3.15;1.47;;;;;;;2.12;65.38;98614.44;1691115;83;21543;-76
2022/01/15 06:28:57;;;;;;;6.40;1.70;;;;;;;2.13;65.15;98648.39;1682244;84;20984;-76
2022/01/15 06:31:28;;;;;;;1.90;1.30;;;;;;;2.17;65.14;98653.55;1708704;83;20997;-76
2022/01/15 06:33:54;;;;;;;2.58;1.30;;;;;;;2.19;64.72;98672.20;1735310;82;21082;-78
2022/01/15 06:36:20;;;;;;;4.20;1.37;;;;;;;2.24;64.51;98637.06;1733660;82;21020;-76
2022/01/15 06:38:47;;;;;;;1.42;1.30;;;;;;;2.28;63.94;98675.87;1718741;83;21084;-75
2022/01/15 06:41:13;;;;;;;1.32;1.20;;;;;;;2.30;63.41;98622.91;1689437;83;20986;-79
2022/01/15 06:43:41;;;;;;;2.05;1.85;;;;;;;2.34;63.31;98641.84;1705964;81;21560;-76
2022/01/15 06:46:08;;;;;;;2.02;1.17;;;;;;;2.39;62.96;98651.27;1749482;82;21007;-77
2022/01/15 06:48:35;;;;;;;0.93;0.93;;;;;;;2.41;62.50;98680.52;1710852;83;21581;-75
2022/01/15 06:51:01;;;;;;;1.20;0.93;;;;;;;2.45;62.34;98645.86;1710798;82;21133;-78
2022/01/15 06:53:29;;;;;;;1.60;1.27;;;;;;;2.49;62.28;98660.33;1721547;81;20944;-75
2022/01/15 06:55:58;;;;;;;2.27;1.30;;;;;;;2.51;62.00;98691.42;1746762;82;21105;-76
2022/01/15 06:58:28;;;;;;;3.30;1.35;;;;;;;2.55;62.23;98677.18;1741476;82;21476;-79
2022/01/15 07:00:57;;;;;;;2.83;1.30;;;;;;;2.58;62.59;98668.28;1692327;82;20987;-75
2022/01/15 07:03:23;;;;;;;2.15;0.98;;;;;;;2.60;62.92;98662.73;1714552;82;21098;-78
2022/01/15 07:05:49;;;;;;;1.25;1.15;;;;;;;2.61;63.04;98690.89;1747293;82;20935;-78
2022/01/15 07:08:16;;;;;;;1.60;1.45;;;;;;;2.62;63.15;98677.92;1723741;82;21071;-76
2022/01/15 07:10:44;;;;;;;2.12;1.20;;;;;;;2.67;63.42;98671.95;1672621;82;21089;-79
2022/01/15 07:13:12;;;;;;;3.67;1.57;;;;;;;2.68;63.13;98697.46;1741914;82;21287;-77
2022/01/15 07:15:40;;;;;;;2.42;1.60;;;;;;;2.71;62.95;98698.33;1720144;82;21018;-74
2022/01/15 07:18:07;;;;;;;2.55;1.57;;;;;;;2.73;62.90;98725.47;1701563;83;20987;-74
2022/01/15 07:20:34;;;;;;;4.90;1.35;;;;;;;2.75;63.17;98702.16;1721723;83;21627;-76
2022/01/15 07:23:00;;;;;;;4.00;1.47;;;;;;;2.76;63.36;98721.03;1671987;83;21030;-78
2022/01/15 07:25:30;;;;;;;2.25;1.60;;;;;;;2.76;63.37;98697.95;1697026;82;21567;-76
2022/01/15 07:27:56;;;;;;;5.42;1.67;;;;;;;2.77;63.59;98765.14;1695276;83;22215;-79
2022/01/15 07:30:24;;;;;;;3.40;1.67;;;;;;;2.80;63.72;98711.59;1748540;80;21551;-75
2022/01/15 07:32:51;;;;;;;3.25;1.98;;;;;;;2.82;63.98;98736.89;1751893;81;20983;-86
2022/01/15 07:35:18;;;;;;;2.00;1.30;;;;;;;2.84;63.86;98732.67;1722681;82;21525;-76
2022/01/15 07:37:44;;;;;;;1.30;1.20;;;;;;;2.87;63.99;98721.63;1702818;81;21075;-76
2022/01/15 07:40:12;;;;;;;2.55;1.57;;;;;;;2.86;63.95;98725.30;1721070;83;21966;-76
2022/01/15 07:42:41;;;;;;;3.52;1.82;;;;;;;2.86;63.99;98706.20;1695178;83;21031;-74
2022/01/15 07:45:17;;;;;;;4.42;2.60;;;;;;;2.86;63.99;98722.65;1671916;83;20944;-80
2022/01/15 07:47:46;;;;;;;3.67;1.60;;;;;;;2.84;63.98;98716.22;1728073;82;21079;-82
2022/01/15 07:50:23;;;;;;;3.83;1.85;;;;;;;2.86;64.10;98722.65;1701286;83;21527;-80
2022/01/15 07:52:47;;;;;;;2.08;1.57;;;;;;;2.85;64.03;98772.28;1717196;83;21176;-79
2022/01/15 07:55:13;;;;;;;2.55;1.65;;;;;;;2.87;63.96;98739.70;1726130;83;20944;-82
2022/01/15 07:57:43;;;;;;;2.93;1.40;;;;;;;2.87;63.77;98729.07;1729578;81;21035;-82
2022/01/15 08:00:15;;;;;;;5.58;1.92;;;;;;;2.88;63.68;98759.06;1677768;84;20973;-81
2022/01/15 08:02:41;;;;;;;2.08;1.62;;;;;;;2.88;63.65;98734.65;1694341;81;21837;-75
2022/01/15 08:05:10;;;;;;;1.37;1.27;;;;;;;2.89;63.60;98793.89;1719802;81;21512;-76
2022/01/15 08:07:40;;;;;;;2.20;1.75;;;;;;;2.88;63.27;98754.56;1721395;83;21116;-75
2022/01/15 08:10:09;;;;;;;1.98;1.77;;;;;;;2.88;63.37;98793.07;1747960;82;21001;-73
2022/01/15 08:12:47;;;;;;;2.35;1.40;;;;;;;2.88;63.40;98779.79;1665230;84;21076;-73
2022/01/15 08:15:15;;;;;;;5.62;1.50;;;;;;;2.90;63.70;98763.65;1684320;83;21708;-73
2022/01/15 08:17:43;;;;;;;1.77;1.45;;;;;;;2.92;64.01;98757.09;1676736;85;20957;-72
2022/01/15 08:20:11;;;;;;;2.37;1.80;;;;;;;2.94;64.40;98768.80;1656503;85;20984;-72
2022/01/15 08:22:40;;;;;;;2.58;1.37;;;;;;;2.94;64.71;98757.66;1658988;85;21047;-73
2022/01/15 08:25:07;;;;;;;1.65;1.30;;;;;;;2.95;65.08;98827.53;1682144;84;21032;-75
2022/01/15 08:27:33;;;;;;;2.17;1.22;;;;;;;2.94;65.32;98789.53;1692952;84;21036;-75
2022/01/15 08:29:59;;;;;;;1.00;1.00;;;;;;;2.94;65.69;98793.52;1659512;85;21551;-75
2022/01/15 08:32:26;;;;;;;2.20;1.35;;;;;;;2.95;65.82;98768.59;1642065;85;21591;-75
2022/01/15 08:34:52;;;;;;;1.30;1.10;;;;;;;2.95;66.22;98792.48;1676777;85;20998;-76
2022/01/15 08:37:18;;;;;;;2.05;1.30;;;;;;;2.95;66.21;98793.00;1656349;85;21012;-73
2022/01/15 08:39:47;;;;;;;2.22;1.42;;;;;;;2.94;66.42;98806.80;1671910;85;21042;-76
2022/01/15 08:42:13;;;;;;;1.37;1.27;;;;;;;2.93;66.65;98773.30;1660702;85;21147;-75
2022/01/15 08:44:42;;;;;;;4.20;2.12;;;;;;;2.92;66.79;98779.67;1631216;87;21540;-74
2022/01/15 08:47:08;;;;;;;3.35;1.85;;;;;;;2.92;66.70;98798.77;1641407;85;21464;-75
2022/01/15 08:49:37;;;;;;;5.28;1.80;;;;;;;2.92;66.77;98777.52;1660703;85;21651;-76
2022/01/15 08:52:04;;;;;;;5.78;1.70;;;;;;;2.88;66.72;98790.41;1661822;85;21016;-77
2022/01/15 08:54:31;;;;;;;6.42;2.27;;;;;;;2.89;66.80;98845.66;1651773;86;21524;-78
2022/01/15 08:57:00;;;;;;;3.25;1.47;;;;;;;2.89;66.60;98794.70;1662633;85;21019;-73
2022/01/15 08:59:27;;;;;;;5.10;2.30;;;;;;;2.89;66.62;98788.57;1672127;85;21100;-73
2022/01/15 09:01:55;;;;;;;2.42;1.65;;;;;;;2.90;66.71;98797.66;1642237;85;21094;-73
2022/01/15 09:04:22;;;;;;;2.50;1.65;;;;;;;2.89;66.63;98799.20;1670617;85;21122;-74
2022/01/15 09:06:48;;;;;;;1.70;1.55;;;;;;;2.88;66.70;98796.23;1680793;85;21065;-75
2022/01/15 09:09:14;;;;;;;4.97;3.02;;;;;;;2.89;66.82;98801.85;1669158;85;20908;-76
2022/01/15 09:11:41;;;;;;;2.05;1.67;;;;;;;2.87;66.63;98862.35;1661116;85;21988;-73
2022/01/15 09:14:08;;;;;;;2.42;1.52;;;;;;;2.86;66.86;98814.25;1658956;86;21778;-75
2022/01/15 09:16:37;;;;;;;3.98;1.98;;;;;;;2.84;67.06;98801.19;1658251;86;20971;-73
2022/01/15 09:19:03;;;;;;;6.62;1.95;;;;;;;2.86;67.30;98820.89;1643577;85;21155;-76
2022/01/15 09:21:30;;;;;;;1.95;1.47;;;;;;;2.84;67.60;98816.30;1651185;85;21088;-74
2022/01/15 09:23:57;;;;;;;2.92;1.15;;;;;;;2.84;67.84;98814.47;1651176;85;21063;-77
2022/01/15 09:26:46;;;;;;;2.15;1.77;;;;;;;2.84;68.05;98801.19;1624539;86;21018;-77
2022/01/15 09:31:40;;;;;;;3.47;1.40;;;;;;;2.84;69.05;98829.06;1633936;87;21203;-75
2022/01/15 09:34:09;;;;;;;2.45;1.57;;;;;;;2.77;69.86;98843.46;1654386;85;21019;-78
2022/01/15 09:36:35;;;;;;;3.42;1.47;;;;;;;2.71;70.36;98854.44;1669854;85;21509;-74
2022/01/15 09:39:02;;;;;;;5.03;1.65;;;;;;;2.69;70.71;98815.85;1631440;86;21113;-77
2022/01/15 09:41:28;;;;;;;2.87;1.20;;;;;;;2.65;71.10;98838.05;1643837;85;22266;-76
2022/01/15 09:43:56;;;;;;;2.50;1.42;;;;;;;2.61;71.42;98881.48;1679586;83;46323;-77
2022/01/15 09:46:22;;;;;;;4.35;1.57;;;;;;;2.60;71.50;98814.83;1697605;83;21533;-76
2022/01/15 09:48:48;;;;;;;2.95;1.70;;;;;;;2.59;71.68;98832.31;1711587;83;20959;-73
2022/01/15 09:51:14;;;;;;;1.92;1.17;;;;;;;2.60;71.78;98825.95;1703585;83;21507;-76
2022/01/15 09:53:41;;;;;;;4.12;1.60;;;;;;;2.60;71.15;98798.90;1697719;83;21124;-73
2022/01/15 09:56:09;;;;;;;4.97;2.45;;;;;;;2.62;71.28;98829.22;1676976;83;21055;-73
2022/01/15 09:58:36;;;;;;;3.02;1.70;;;;;;;2.64;71.35;98801.91;1697197;83;21007;-74
2022/01/15 10:01:02;;;;;;;4.00;2.65;;;;;;;2.65;71.26;98831.42;1698233;83;20959;-78
2022/01/15 10:03:29;;;;;;;3.67;2.02;;;;;;;2.66;71.41;98825.09;1697671;83;21578;-74
2022/01/15 10:05:56;;;;;;;2.10;1.40;;;;;;;2.68;71.64;98829.67;1671020;84;21094;-75
2022/01/15 10:08:27;;;;;;;4.30;1.80;;;;;;;2.68;71.47;98872.14;1709164;83;20994;-75
2022/01/15 10:10:58;;;;;;;2.02;1.42;;;;;;;2.67;71.66;98841.83;1713152;83;20970;-75
2022/01/15 10:13:32;;;;;;;1.80;1.30;;;;;;;2.64;72.20;98847.86;1685781;83;21086;-75
2022/01/15 10:16:04;;;;;;;3.80;2.20;;;;;;;2.58;73.07;98885.91;1655692;86;21003;-77
2022/01/15 10:18:35;;;;;;;1.42;1.30;;;;;;;2.55;73.66;98828.45;1701785;83;21574;-79
2022/01/15 10:21:19;;;;;;;4.00;1.80;;;;;;;2.47;75.87;98842.83;1675855;84;21761;-81
2022/01/15 10:23:51;;;;;;;2.70;1.67;;;;;;;2.40;75.75;98857.98;1699548;84;28143;-77
2022/01/15 10:26:22;;;;;;;3.05;1.65;;;;;;;2.36;75.00;98867.41;1685263;84;21543;-78
2022/01/15 10:29:07;;;;;;;3.58;1.52;;;;;;;2.35;74.71;98851.19;1695971;84;21012;-74
2022/01/15 10:31:42;;;;;;;1.42;1.32;;;;;;;2.37;74.70;98840.37;1665481;85;20968;-76
2022/01/15 10:34:31;;;;;;;3.92;2.40;;;;;;;2.39;74.53;98860.88;1655120;84;21162;-73
2022/01/15 10:37:17;;;;;;;2.55;1.37;;;;;;;2.41;74.47;98842.36;1672504;84;20967;-76
2022/01/15 10:40:06;;;;;;;1.42;1.32;;;;;;;2.44;73.99;98838.48;1646557;85;21019;-72
2022/01/15 10:42:35;;;;;;;1.85;1.37;;;;;;;2.48;73.71;98851.09;1690930;84;21051;-72
2022/01/15 10:45:12;;;;;;;3.12;1.62;;;;;;;2.51;73.54;98852.48;1691355;84;21104;-74
2022/01/15 10:47:49;;;;;;;1.92;1.52;;;;;;;2.54;73.29;98843.56;1663308;84;21790;-77
2022/01/15 10:50:21;;;;;;;2.90;1.55;;;;;;;2.57;73.20;98841.81;1651507;85;21100;-75
2022/01/15 10:52:48;;;;;;;5.17;2.50;;;;;;;2.59;72.65;98927.87;1672860;84;20972;-75
2022/01/15 10:55:17;;;;;;;2.58;1.25;;;;;;;2.61;72.12;98855.45;1678106;84;21595;-75
2022/01/15 10:57:56;;;;;;;2.30;2.12;;;;;;;2.64;71.91;98864.30;1661586;85;21073;-73
2022/01/15 11:00:32;;;;;;;3.72;1.90;;;;;;;2.67;72.17;98856.42;1674118;84;21384;-73
2022/01/15 11:03:01;;;;;;;2.17;1.47;;;;;;;2.68;71.99;98844.78;1692850;82;21039;-77
2022/01/15 11:05:42;;;;;;;6.72;2.62;;;;;;;2.69;72.13;98864.45;1701270;84;21058;-77
2022/01/15 11:08:27;;;;;;;3.90;1.10;;;;;;;2.70;72.20;98866.59;1697875;83;21059;-83
2022/01/15 11:11:05;;;;;;;2.05;1.20;;;;;;;2.69;72.37;98853.83;1616904;86;21089;-77
2022/01/15 11:13:42;;;;;;;2.92;1.27;;;;;;;2.66;72.57;98919.31;1674443;84;21114;-80
2022/01/15 11:16:14;;;;;;;4.20;1.67;;;;;;;2.67;72.96;98863.06;1674765;84;21028;-78
2022/01/15 11:18:44;;;;;;;2.90;1.45;;;;;;;2.67;73.01;98892.27;1673284;84;21045;-77
2022/01/15 11:21:15;;;;;;;3.42;1.82;;;;;;;2.66;73.05;98890.63;1651264;84;21340;-78
2022/01/15 11:23:43;;;;;;;2.80;1.50;;;;;;;2.64;73.15;98907.58;1720630;82;21077;-81
2022/01/15 11:26:12;;;;;;;3.37;1.77;;;;;;;2.63;73.22;98911.29;1718664;82;21025;-76
2022/01/15 11:28:39;;;;;;;1.65;1.40;;;;;;;2.61;73.44;98926.61;1678723;85;20925;-81
2022/01/15 11:31:09;;;;;;;4.37;1.90;;;;;;;2.59;73.57;98948.56;1680014;84;21028;-80
2022/01/15 11:33:41;;;;;;;3.90;1.60;;;;;;;2.58;73.75;98946.95;1715588;83;21011;-77
2022/01/15 11:36:08;;;;;;;5.50;1.92;;;;;;;2.59;73.84;98914.05;1715761;83;21043;-76
2022/01/15 11:38:47;;;;;;;3.42;1.82;;;;;;;2.59;73.97;98918.58;1703015;83;21976;-82
2022/01/15 11:41:31;;;;;;;3.25;1.77;;;;;;;2.60;74.06;98943.55;1651497;85;21432;-78
2022/01/15 11:44:12;;;;;;;3.95;2.12;;;;;;;2.61;74.01;98943.05;1689505;83;21055;-79
2022/01/15 11:46:50;;;;;;;4.33;1.40;;;;;;;2.58;74.16;98924.40;1688550;84;21506;-81
2022/01/15 11:49:41;;;;;;;3.98;2.15;;;;;;;2.58;74.22;98920.93;1666448;83;36756;-75
2022/01/15 11:52:18;;;;;;;3.00;1.65;;;;;;;2.59;74.29;98915.92;1706011;82;21159;-74
2022/01/15 11:55:08;;;;;;;6.35;2.52;;;;;;;2.60;74.06;98959.99;1720265;81;21023;-77
2022/01/15 11:57:45;;;;;;;1.50;1.37;;;;;;;2.59;74.04;98948.56;1670651;83;21047;-78
2022/01/15 12:00:22;;;;;;;5.20;1.60;;;;;;;2.61;73.98;98927.12;1734331;82;20982;-81
2022/01/15 12:03:00;;;;;;;2.87;1.52;;;;;;;2.66;73.71;98925.14;1651236;85;21077;-80
2022/01/15 12:05:29;;;;;;;1.72;1.62;;;;;;;2.69;73.45;98940.63;1698738;83;21295;-78
2022/01/15 12:08:11;;;;;;;2.60;1.40;;;;;;;2.77;72.85;98947.82;1717344;82;21005;-75